Time;durP1;ratioP1;P1;durP2;ratioP2;P2;SDS_P1;SDS_P2;PMS_P1;PMS_P2;Temp;Humidity;BMP_temperature;BMP_pressure;BME280_temperature;BME280_humidity;BME280_pressure;Samples;Min_cycle;Max_cycle;Signal;HPM_P1;HPM_P2
2022/10/15 00:00:06;;;;;;;;;;;13.40;99.90;;;;;;5113111;28;19924;-67
2022/10/15 00:02:33;;;;;;;;;;;13.40;99.90;;;;;;5107687;27;19946;-67
2022/10/15 00:04:59;;;;;;;;;;;13.40;99.90;;;;;;5114774;27;20014;-67
2022/10/15 00:07:28;;;;;;;;;;;13.40;99.90;;;;;;5111485;28;19924;-67
2022/10/15 00:09:56;;;;;;;;;;;13.40;99.90;;;;;;5118289;27;19923;-67
2022/10/15 00:12:22;;;;;;;;;;;13.50;99.90;;;;;;5113482;27;20305;-67
2022/10/15 00:14:49;;;;;;;;;;;13.50;99.90;;;;;;5111868;28;20289;-67
2022/10/15 00:17:16;;;;;;;;;;;13.50;99.90;;;;;;5110902;28;19930;-67
2022/10/15 00:19:42;;;;;;;;;;;13.50;99.90;;;;;;5109285;28;19931;-67
2022/10/15 00:22:09;;;;;;;;;;;13.60;99.90;;;;;;5114973;27;19930;-67
2022/10/15 00:24:36;;;;;;;;;;;13.60;99.90;;;;;;5111557;27;19924;-67
2022/10/15 00:27:04;;;;;;;;;;;13.50;99.90;;;;;;5102105;28;19930;-67
2022/10/15 00:29:31;;;;;;;;;;;13.60;99.90;;;;;;5107725;27;20046;-67
2022/10/15 00:31:58;;;;;;;;;;;13.60;99.90;;;;;;5113194;27;19935;-67
2022/10/15 00:34:24;;;;;;;;;;;13.60;99.90;;;;;;5123765;27;19923;-66
2022/10/15 00:36:51;;;;;;;;;;;13.60;99.90;;;;;;5113924;28;19963;-66
2022/10/15 00:39:17;;;;;;;;;;;13.60;99.90;;;;;;5107634;27;19927;-66
2022/10/15 00:41:44;;;;;;;;;;;13.60;99.90;;;;;;5108265;27;19977;-66
2022/10/15 00:44:30;;;;;;;;;;;13.60;99.90;;;;;;5123851;27;19971;-66
2022/10/15 00:47:01;;;;;;;;;;;13.60;99.90;;;;;;5110623;27;19959;-67
2022/10/15 00:49:30;;;;;;;;;;;13.60;99.90;;;;;;5124041;27;20374;-67
2022/10/15 00:51:59;;;;;;;;;;;13.60;99.90;;;;;;5109551;27;19930;-68
2022/10/15 00:54:26;;;;;;;;;;;13.60;99.90;;;;;;5121078;27;19924;-66
2022/10/15 00:56:54;;;;;;;;;;;13.60;99.90;;;;;;5109064;28;20386;-66
2022/10/15 00:59:23;;;;;;;;;;;13.60;99.90;;;;;;5111230;28;19955;-66
2022/10/15 01:01:49;;;;;;;;;;;13.50;99.90;;;;;;5110223;28;20011;-66
2022/10/15 01:04:17;;;;;;;;;;;13.50;99.90;;;;;;5108658;28;20498;-66
2022/10/15 01:06:44;;;;;;;;;;;13.50;99.90;;;;;;5110158;28;19951;-66
2022/10/15 01:09:11;;;;;;;;;;;13.50;99.90;;;;;;5108690;28;20293;-67
2022/10/15 01:11:40;;;;;;;;;;;13.50;99.90;;;;;;5111120;27;20293;-66
2022/10/15 01:14:13;;;;;;;;;;;13.50;99.90;;;;;;5114960;27;19930;-67
2022/10/15 01:16:45;;;;;;;;;;;13.50;99.90;;;;;;5113078;27;19930;-66
2022/10/15 01:19:21;;;;;;;;;;;13.50;99.90;;;;;;5115442;27;19930;-66
2022/10/15 01:21:51;;;;;;;;;;;13.50;99.90;;;;;;5109808;28;19942;-66
2022/10/15 01:24:30;;;;;;;;;;;13.50;99.90;;;;;;5114202;27;20336;-66
2022/10/15 01:27:14;;;;;;;;;;;13.50;99.90;;;;;;5095402;28;19923;-66
2022/10/15 01:29:58;;;;;;;;;;;13.50;99.90;;;;;;5109529;27;20456;-66
2022/10/15 01:32:27;;;;;;;;;;;13.50;99.90;;;;;;5113687;27;20031;-67
2022/10/15 01:34:56;;;;;;;;;;;13.50;99.90;;;;;;5126367;27;20051;-66
2022/10/15 01:37:26;;;;;;;;;;;13.50;99.90;;;;;;5110965;28;20014;-66
2022/10/15 01:39:56;;;;;;;;;;;13.50;99.90;;;;;;5109460;28;19928;-66
2022/10/15 01:42:26;;;;;;;;;;;13.50;99.90;;;;;;5111088;27;19924;-66
2022/10/15 01:44:54;;;;;;;;;;;13.50;99.90;;;;;;5104755;28;19927;-66
2022/10/15 01:47:23;;;;;;;;;;;13.40;99.90;;;;;;5128884;27;19923;-66
2022/10/15 01:49:53;;;;;;;;;;;13.50;99.90;;;;;;5114261;27;19923;-66
2022/10/15 01:52:22;;;;;;;;;;;13.40;99.90;;;;;;5113701;27;19927;-65
2022/10/15 01:54:50;;;;;;;;;;;13.40;99.90;;;;;;5110211;28;19928;-66
2022/10/15 01:57:18;;;;;;;;;;;13.40;99.90;;;;;;5112956;27;20011;-66
2022/10/15 01:59:44;;;;;;;;;;;13.40;99.90;;;;;;5108504;28;19923;-66
2022/10/15 02:02:11;;;;;;;;;;;13.40;99.90;;;;;;5109740;27;19924;-66
2022/10/15 02:04:38;;;;;;;;;;;13.30;99.90;;;;;;5108491;28;19932;-66
2022/10/15 02:07:07;;;;;;;;;;;13.40;99.90;;;;;;5111854;27;19930;-66
2022/10/15 02:09:40;;;;;;;;;;;13.30;99.90;;;;;;5118689;27;19924;-66
2022/10/15 02:12:11;;;;;;;;;;;13.30;99.90;;;;;;5113709;27;20370;-65
2022/10/15 02:14:42;;;;;;;;;;;13.30;99.90;;;;;;5105644;28;19971;-66
2022/10/15 02:17:09;;;;;;;;;;;13.20;99.90;;;;;;5105205;28;19924;-66
2022/10/15 02:19:41;;;;;;;;;;;13.10;99.90;;;;;;5108940;28;20000;-66
2022/10/15 02:22:13;;;;;;;;;;;13.10;99.90;;;;;;5126714;27;19930;-66
2022/10/15 02:24:41;;;;;;;;;;;13.00;99.90;;;;;;5110106;28;19923;-66
2022/10/15 02:27:08;;;;;;;;;;;13.00;99.90;;;;;;5109215;28;19930;-66
2022/10/15 02:29:36;;;;;;;;;;;12.90;99.90;;;;;;5112066;28;19924;-66
2022/10/15 02:32:03;;;;;;;;;;;12.90;99.90;;;;;;5111910;28;20293;-66
2022/10/15 02:34:30;;;;;;;;;;;12.90;99.90;;;;;;5111648;28;20019;-65
2022/10/15 02:36:58;;;;;;;;;;;12.90;99.90;;;;;;5120705;28;19930;-66
2022/10/15 02:39:26;;;;;;;;;;;12.90;99.90;;;;;;5104974;28;19923;-66
2022/10/15 02:41:53;;;;;;;;;;;12.90;99.90;;;;;;5118983;28;19923;-66
2022/10/15 02:44:20;;;;;;;;;;;12.90;99.90;;;;;;5106823;28;20489;-66
2022/10/15 02:46:47;;;;;;;;;;;12.80;99.90;;;;;;5109125;28;20417;-66
2022/10/15 02:49:13;;;;;;;;;;;12.80;99.90;;;;;;5107138;28;19927;-66
2022/10/15 02:51:40;;;;;;;;;;;12.80;99.90;;;;;;5109559;28;19932;-67
2022/10/15 02:54:07;;;;;;;;;;;12.90;99.90;;;;;;5112266;28;19924;-66
2022/10/15 02:56:37;;;;;;;;;;;12.90;99.90;;;;;;5109657;28;19924;-66
2022/10/15 02:59:04;;;;;;;;;;;12.90;99.90;;;;;;5117791;28;20294;-66
2022/10/15 03:01:31;;;;;;;;;;;12.90;99.90;;;;;;5109929;28;20044;-66
2022/10/15 03:03:58;;;;;;;;;;;12.90;99.90;;;;;;5106633;28;20377;-66
2022/10/15 03:06:25;;;;;;;;;;;12.90;99.90;;;;;;5115698;28;19930;-66
2022/10/15 03:08:51;;;;;;;;;;;12.90;99.90;;;;;;5107583;28;20018;-66
2022/10/15 03:11:18;;;;;;;;;;;13.00;99.90;;;;;;5104641;28;19924;-66
2022/10/15 03:13:46;;;;;;;;;;;13.00;99.90;;;;;;5111207;28;19923;-66
2022/10/15 03:16:13;;;;;;;;;;;13.00;99.90;;;;;;5119307;28;19924;-66
2022/10/15 03:18:39;;;;;;;;;;;13.10;99.90;;;;;;5104402;28;19928;-66
2022/10/15 03:21:06;;;;;;;;;;;13.10;99.90;;;;;;5123503;28;20393;-65
2022/10/15 03:23:33;;;;;;;;;;;13.10;99.90;;;;;;5116473;28;19932;-65
2022/10/15 03:25:59;;;;;;;;;;;13.10;99.90;;;;;;5107908;28;19930;-65
2022/10/15 03:28:26;;;;;;;;;;;13.10;99.90;;;;;;5116764;28;20020;-65
2022/10/15 03:30:54;;;;;;;;;;;13.10;99.90;;;;;;5104387;28;19923;-65
2022/10/15 03:33:21;;;;;;;;;;;13.00;99.90;;;;;;5108887;28;20174;-66
2022/10/15 03:35:47;;;;;;;;;;;12.90;99.90;;;;;;5109220;28;19923;-65
2022/10/15 03:38:14;;;;;;;;;;;12.80;99.90;;;;;;5111613;28;20037;-65
2022/10/15 03:40:41;;;;;;;;;;;12.80;99.90;;;;;;5107471;28;19924;-65
2022/10/15 03:43:07;;;;;;;;;;;12.80;99.90;;;;;;5111541;28;19924;-65
2022/10/15 03:45:34;;;;;;;;;;;12.70;99.90;;;;;;5115434;27;20005;-65
2022/10/15 03:48:02;;;;;;;;;;;12.70;99.90;;;;;;5113008;28;20089;-65
2022/10/15 03:50:29;;;;;;;;;;;12.70;99.90;;;;;;5117463;27;19924;-65
2022/10/15 03:52:55;;;;;;;;;;;12.60;99.90;;;;;;5112123;28;19978;-66
2022/10/15 03:55:22;;;;;;;;;;;12.60;99.90;;;;;;5109336;27;19927;-65
2022/10/15 03:57:48;;;;;;;;;;;12.50;99.90;;;;;;5117368;27;19923;-65
2022/10/15 04:00:16;;;;;;;;;;;12.50;99.90;;;;;;5111537;28;19930;-66
2022/10/15 04:02:42;;;;;;;;;;;12.50;99.90;;;;;;5112052;28;20445;-66
2022/10/15 04:05:10;;;;;;;;;;;12.50;99.90;;;;;;5111424;28;19924;-66
2022/10/15 04:07:37;;;;;;;;;;;12.50;99.90;;;;;;5116108;27;20296;-65
2022/10/15 04:10:04;;;;;;;;;;;12.50;99.90;;;;;;5123198;27;20031;-65
2022/10/15 04:12:30;;;;;;;;;;;12.50;99.90;;;;;;5114169;27;20766;-66
2022/10/15 04:14:57;;;;;;;;;;;12.60;99.90;;;;;;5111159;28;19930;-65
2022/10/15 04:17:24;;;;;;;;;;;12.60;99.90;;;;;;5118369;27;20011;-66
2022/10/15 04:19:50;;;;;;;;;;;12.50;99.90;;;;;;5111614;28;19924;-66
2022/10/15 04:22:18;;;;;;;;;;;12.50;99.90;;;;;;5117505;27;19974;-66
2022/10/15 04:24:45;;;;;;;;;;;12.50;99.90;;;;;;5110104;28;19931;-66
2022/10/15 04:27:12;;;;;;;;;;;12.50;99.90;;;;;;5112087;27;20019;-66
2022/10/15 04:29:39;;;;;;;;;;;12.50;99.90;;;;;;5116798;27;19956;-66
2022/10/15 04:32:06;;;;;;;;;;;12.50;99.90;;;;;;5104926;28;19924;-66
2022/10/15 04:34:32;;;;;;;;;;;12.50;99.90;;;;;;5122943;27;20397;-66
2022/10/15 04:36:59;;;;;;;;;;;12.50;99.90;;;;;;5122919;27;20587;-66
2022/10/15 04:39:27;;;;;;;;;;;12.60;99.90;;;;;;5115351;27;19930;-66
2022/10/15 04:41:54;;;;;;;;;;;12.60;99.90;;;;;;5121338;27;19924;-66
2022/10/15 04:44:20;;;;;;;;;;;12.60;99.90;;;;;;5116331;27;19942;-65
2022/10/15 04:46:47;;;;;;;;;;;12.60;99.90;;;;;;5122132;27;19923;-66
2022/10/15 04:49:14;;;;;;;;;;;12.70;99.90;;;;;;5113348;27;20279;-66
2022/10/15 04:51:40;;;;;;;;;;;12.70;99.90;;;;;;5110584;28;20263;-66
2022/10/15 04:54:07;;;;;;;;;;;12.80;99.90;;;;;;5111734;28;20405;-66
2022/10/15 04:56:35;;;;;;;;;;;12.80;99.90;;;;;;5109842;28;20493;-66
2022/10/15 04:59:02;;;;;;;;;;;12.90;99.90;;;;;;5111127;28;19923;-66
2022/10/15 05:01:28;;;;;;;;;;;12.90;99.90;;;;;;5112965;27;20014;-65
2022/10/15 05:03:55;;;;;;;;;;;12.90;99.90;;;;;;5111391;28;19930;-66
2022/10/15 05:06:22;;;;;;;;;;;12.90;99.90;;;;;;5111747;27;19932;-66
2022/10/15 05:08:49;;;;;;;;;;;12.90;99.90;;;;;;5110733;28;19998;-66
2022/10/15 05:11:17;;;;;;;;;;;12.90;99.90;;;;;;5113672;27;19923;-66
2022/10/15 05:13:45;;;;;;;;;;;12.90;99.90;;;;;;5112887;28;19924;-65
2022/10/15 05:16:13;;;;;;;;;;;12.90;99.90;;;;;;5106632;27;19924;-66
2022/10/15 05:18:40;;;;;;;;;;;12.90;99.90;;;;;;5110806;28;19924;-65
2022/10/15 05:21:07;;;;;;;;;;;12.90;99.90;;;;;;5112107;27;20014;-65
2022/10/15 05:23:34;;;;;;;;;;;12.90;99.90;;;;;;5110169;28;19976;-65
2022/10/15 05:26:03;;;;;;;;;;;12.90;99.90;;;;;;5109479;28;19946;-66
2022/10/15 05:28:29;;;;;;;;;;;12.90;99.90;;;;;;5112176;28;19924;-66
2022/10/15 05:31:03;;;;;;;;;;;12.90;99.90;;;;;;5117188;27;19971;-65
2022/10/15 05:33:29;;;;;;;;;;;12.90;99.90;;;;;;5112058;28;20014;-65
2022/10/15 05:35:56;;;;;;;;;;;12.90;99.90;;;;;;5113220;27;19932;-65
2022/10/15 05:38:23;;;;;;;;;;;12.90;99.90;;;;;;5109929;28;19971;-65
2022/10/15 05:40:49;;;;;;;;;;;12.90;99.90;;;;;;5116530;27;19923;-65
2022/10/15 05:43:16;;;;;;;;;;;12.90;99.90;;;;;;5110485;28;20394;-67
2022/10/15 05:45:43;;;;;;;;;;;12.90;99.90;;;;;;5109395;28;19942;-67
2022/10/15 05:48:11;;;;;;;;;;;13.00;99.90;;;;;;5110588;27;19930;-66
2022/10/15 05:50:37;;;;;;;;;;;13.00;99.90;;;;;;5114822;27;19930;-66
2022/10/15 05:53:04;;;;;;;;;;;13.00;99.90;;;;;;5109652;27;19930;-66
2022/10/15 05:55:30;;;;;;;;;;;13.00;99.90;;;;;;5115755;27;19924;-66
2022/10/15 05:58:00;;;;;;;;;;;13.00;99.90;;;;;;5113974;27;19924;-66
2022/10/15 06:00:27;;;;;;;;;;;12.90;99.90;;;;;;5109655;27;19933;-66
2022/10/15 06:02:53;;;;;;;;;;;12.90;99.90;;;;;;5110437;28;20002;-67
2022/10/15 06:05:21;;;;;;;;;;;13.00;99.90;;;;;;5111370;28;19931;-67
2022/10/15 06:07:48;;;;;;;;;;;13.00;99.90;;;;;;5101937;27;19931;-67
2022/10/15 06:10:15;;;;;;;;;;;13.00;99.90;;;;;;5114087;27;20006;-68
2022/10/15 06:12:43;;;;;;;;;;;13.00;99.90;;;;;;5118970;27;19967;-68
2022/10/15 06:15:10;;;;;;;;;;;13.00;99.90;;;;;;5111860;27;19924;-67
2022/10/15 06:17:36;;;;;;;;;;;13.10;99.90;;;;;;5111886;28;20002;-67
2022/10/15 06:20:03;;;;;;;;;;;13.10;99.90;;;;;;5109794;28;20104;-67
2022/10/15 06:22:31;;;;;;;;;;;13.10;99.90;;;;;;5112010;28;19923;-67
2022/10/15 06:24:58;;;;;;;;;;;13.10;99.90;;;;;;5108752;28;19923;-67
2022/10/15 06:27:25;;;;;;;;;;;13.20;99.90;;;;;;5112117;28;20055;-67
2022/10/15 06:29:51;;;;;;;;;;;13.20;99.90;;;;;;5115768;28;19931;-66
2022/10/15 06:32:18;;;;;;;;;;;13.20;99.90;;;;;;5107790;28;19932;-66
2022/10/15 06:34:44;;;;;;;;;;;13.20;99.90;;;;;;5110132;28;19931;-66
2022/10/15 06:37:11;;;;;;;;;;;13.30;99.90;;;;;;5109615;28;20013;-66
2022/10/15 06:39:39;;;;;;;;;;;13.30;99.90;;;;;;5111866;28;20005;-66
2022/10/15 06:42:06;;;;;;;;;;;13.40;99.90;;;;;;5107782;28;19963;-65
2022/10/15 06:44:33;;;;;;;;;;;13.40;99.90;;;;;;5104643;28;19938;-66
2022/10/15 06:46:59;;;;;;;;;;;13.50;99.90;;;;;;5101660;28;19924;-66
2022/10/15 06:49:26;;;;;;;;;;;13.50;99.90;;;;;;5106254;28;19930;-66
2022/10/15 06:51:53;;;;;;;;;;;13.60;99.90;;;;;;5102818;28;19942;-65
2022/10/15 06:54:19;;;;;;;;;;;13.60;99.90;;;;;;5106699;28;19930;-66
2022/10/15 06:56:47;;;;;;;;;;;13.70;99.90;;;;;;5101874;28;19924;-65
2022/10/15 06:59:14;;;;;;;;;;;13.70;99.90;;;;;;5102245;28;19946;-66
2022/10/15 07:01:41;;;;;;;;;;;13.80;99.90;;;;;;5102758;28;19930;-65
2022/10/15 07:04:07;;;;;;;;;;;13.80;99.90;;;;;;5105898;28;19931;-65
2022/10/15 07:06:34;;;;;;;;;;;13.80;99.90;;;;;;5106485;28;20003;-65
2022/10/15 07:09:01;;;;;;;;;;;13.80;99.90;;;;;;5105702;28;20330;-64
2022/10/15 07:11:28;;;;;;;;;;;13.90;99.90;;;;;;5119591;28;20555;-64
2022/10/15 07:13:57;;;;;;;;;;;14.10;99.90;;;;;;5111809;28;20279;-65
2022/10/15 07:16:23;;;;;;;;;;;14.20;99.90;;;;;;5110526;27;19957;-64
2022/10/15 07:18:50;;;;;;;;;;;14.30;99.90;;;;;;5112575;27;19924;-65
2022/10/15 07:21:17;;;;;;;;;;;14.30;99.90;;;;;;5118452;27;20296;-65
2022/10/15 07:23:43;;;;;;;;;;;14.30;99.90;;;;;;5117365;27;19957;-66
2022/10/15 07:26:11;;;;;;;;;;;14.40;99.90;;;;;;5105097;27;19975;-66
2022/10/15 07:28:37;;;;;;;;;;;14.40;99.90;;;;;;5107733;28;19924;-66
2022/10/15 07:31:07;;;;;;;;;;;14.60;99.90;;;;;;5109242;27;19924;-66
2022/10/15 07:33:34;;;;;;;;;;;14.60;99.90;;;;;;5112070;27;19932;-66
2022/10/15 07:36:02;;;;;;;;;;;14.70;99.90;;;;;;5110809;27;19923;-65
2022/10/15 07:38:29;;;;;;;;;;;14.80;99.90;;;;;;5113083;27;19932;-65
2022/10/15 07:40:57;;;;;;;;;;;14.80;99.90;;;;;;5116030;27;20022;-65
2022/10/15 07:43:24;;;;;;;;;;;14.80;99.90;;;;;;5115072;27;20300;-65
2022/10/15 07:45:50;;;;;;;;;;;14.80;99.90;;;;;;5106544;27;20014;-65
2022/10/15 07:48:18;;;;;;;;;;;14.80;99.90;;;;;;5104316;27;20006;-65
2022/10/15 07:50:45;;;;;;;;;;;14.80;99.90;;;;;;5110027;27;19930;-65
2022/10/15 07:53:12;;;;;;;;;;;14.80;99.90;;;;;;5111928;27;20484;-65
2022/10/15 07:55:38;;;;;;;;;;;14.70;99.90;;;;;;5113766;27;19927;-65
2022/10/15 07:58:07;;;;;;;;;;;14.70;99.90;;;;;;5112280;27;19928;-65
2022/10/15 08:00:33;;;;;;;;;;;14.80;99.90;;;;;;5110774;27;20400;-64
2022/10/15 08:03:00;;;;;;;;;;;14.70;99.90;;;;;;5099288;27;19935;-64
2022/10/15 08:05:28;;;;;;;;;;;14.70;99.90;;;;;;5101547;27;20012;-65
2022/10/15 08:07:55;;;;;;;;;;;14.70;99.90;;;;;;5095987;28;19924;-65
2022/10/15 08:10:22;;;;;;;;;;;14.80;99.90;;;;;;5112591;27;20026;-65
2022/10/15 08:12:48;;;;;;;;;;;14.90;99.90;;;;;;5109616;27;19927;-66
2022/10/15 08:15:15;;;;;;;;;;;15.00;99.90;;;;;;5123516;27;20198;-66
2022/10/15 08:17:42;;;;;;;;;;;15.10;99.90;;;;;;5112847;27;19932;-64
2022/10/15 08:20:09;;;;;;;;;;;15.10;99.90;;;;;;5117028;27;20374;-64
2022/10/15 08:22:37;;;;;;;;;;;15.10;99.90;;;;;;5112782;27;19924;-66
2022/10/15 08:25:05;;;;;;;;;;;15.20;99.90;;;;;;5106676;27;19960;-65
2022/10/15 08:27:32;;;;;;;;;;;15.20;99.90;;;;;;5108228;27;20379;-65
2022/10/15 08:29:58;;;;;;;;;;;15.30;99.90;;;;;;5108712;27;20542;-66
2022/10/15 08:32:25;;;;;;;;;;;15.40;99.90;;;;;;5112770;27;19970;-65
2022/10/15 08:34:52;;;;;;;;;;;15.50;99.90;;;;;;5111149;27;20309;-65
2022/10/15 08:37:18;;;;;;;;;;;15.60;99.90;;;;;;5116079;27;19924;-65
2022/10/15 08:39:47;;;;;;;;;;;15.70;99.90;;;;;;5114725;27;19923;-66
2022/10/15 08:42:16;;;;;;;;;;;15.70;99.90;;;;;;5108114;27;19928;-65
2022/10/15 08:44:45;;;;;;;;;;;15.70;99.90;;;;;;5115835;27;19924;-65
2022/10/15 08:47:19;;;;;;;;;;;15.70;99.90;;;;;;5114440;27;20006;-65
2022/10/15 08:49:48;;;;;;;;;;;15.70;99.90;;;;;;5109380;27;19924;-66
2022/10/15 08:52:19;;;;;;;;;;;15.70;99.90;;;;;;5116900;27;20283;-65
2022/10/15 08:54:48;;;;;;;;;;;15.70;99.90;;;;;;5120054;27;19969;-66
2022/10/15 08:57:22;;;;;;;;;;;15.70;99.90;;;;;;5108236;27;20309;-65
2022/10/15 08:59:52;;;;;;;;;;;15.60;99.90;;;;;;5108353;28;19923;-65
2022/10/15 09:02:22;;;;;;;;;;;15.70;99.90;;;;;;5110867;27;20336;-65
2022/10/15 09:04:52;;;;;;;;;;;15.70;99.90;;;;;;5107743;27;19967;-65
2022/10/15 09:07:23;;;;;;;;;;;15.70;99.90;;;;;;5119506;27;19924;-66
2022/10/15 09:09:53;;;;;;;;;;;15.60;99.90;;;;;;5108614;28;20073;-65
2022/10/15 09:12:36;;;;;;;;;;;15.70;99.90;;;;;;5098236;27;19967;-66
2022/10/15 09:15:03;;;;;;;;;;;15.80;99.90;;;;;;5110148;27;20009;-66
2022/10/15 09:17:32;;;;;;;;;;;15.70;99.90;;;;;;5108758;27;19923;-67
2022/10/15 09:20:01;;;;;;;;;;;15.70;99.90;;;;;;5108724;27;19924;-66
2022/10/15 09:22:29;;;;;;;;;;;15.80;99.90;;;;;;5109496;27;19927;-66
2022/10/15 09:24:58;;;;;;;;;;;15.90;99.90;;;;;;5112426;28;20018;-65
2022/10/15 09:27:27;;;;;;;;;;;15.90;99.90;;;;;;5112561;27;19932;-65
2022/10/15 09:29:56;;;;;;;;;;;16.00;99.90;;;;;;5114310;27;20011;-66
2022/10/15 09:32:26;;;;;;;;;;;16.10;99.90;;;;;;5108404;27;19923;-66
2022/10/15 09:34:55;;;;;;;;;;;16.10;99.90;;;;;;5113858;27;19927;-64
2022/10/15 09:37:25;;;;;;;;;;;16.20;99.90;;;;;;5109333;27;19943;-66
2022/10/15 09:40:11;;;;;;;;;;;16.20;99.90;;;;;;5107382;27;19924;-66
2022/10/15 09:42:40;;;;;;;;;;;16.30;99.90;;;;;;5117413;27;19932;-65
2022/10/15 09:45:10;;;;;;;;;;;16.40;99.90;;;;;;5119518;27;19924;-65
2022/10/15 09:47:37;;;;;;;;;;;16.50;99.90;;;;;;5108129;27;20289;-66
2022/10/15 09:50:04;;;;;;;;;;;16.60;99.90;;;;;;5125088;27;19930;-66
2022/10/15 09:52:40;;;;;;;;;;;16.50;99.90;;;;;;5120181;27;19930;-65
2022/10/15 09:55:12;;;;;;;;;;;16.50;99.90;;;;;;5111212;27;19927;-64
2022/10/15 09:57:40;;;;;;;;;;;16.50;99.90;;;;;;5108937;27;19927;-64
2022/10/15 10:00:10;;;;;;;;;;;16.40;99.90;;;;;;5110366;27;20393;-65
2022/10/15 10:02:37;;;;;;;;;;;16.40;99.90;;;;;;5110698;27;19932;-66
2022/10/15 10:05:18;;;;;;;;;;;16.40;99.90;;;;;;5113210;27;19963;-65
2022/10/15 10:07:45;;;;;;;;;;;16.50;99.90;;;;;;5110290;28;19930;-66
2022/10/15 10:10:23;;;;;;;;;;;16.50;99.90;;;;;;5107443;27;19928;-66
2022/10/15 10:12:51;;;;;;;;;;;16.60;99.90;;;;;;5095660;27;19930;-66
2022/10/15 10:15:27;;;;;;;;;;;16.60;99.90;;;;;;5115988;27;20022;-66
2022/10/15 10:17:54;;;;;;;;;;;16.60;99.90;;;;;;5111328;28;20442;-67
2022/10/15 10:20:22;;;;;;;;;;;16.70;99.90;;;;;;5108997;27;19934;-67
2022/10/15 10:22:49;;;;;;;;;;;16.80;99.90;;;;;;5109002;27;20395;-65
2022/10/15 10:25:27;;;;;;;;;;;16.80;99.90;;;;;;5103220;27;20487;-65
2022/10/15 10:27:56;;;;;;;;;;;16.90;99.90;;;;;;5111311;27;20014;-65
2022/10/15 10:30:23;;;;;;;;;;;16.90;99.90;;;;;;5104263;28;19923;-66
2022/10/15 10:32:55;;;;;;;;;;;16.90;99.90;;;;;;5102694;28;20301;-65
2022/10/15 10:35:22;;;;;;;;;;;16.90;99.90;;;;;;5094864;28;19932;-66
2022/10/15 10:37:49;;;;;;;;;;;17.00;99.90;;;;;;5098511;28;19931;-66
2022/10/15 10:40:21;;;;;;;;;;;17.10;99.90;;;;;;5106462;28;20335;-68
2022/10/15 10:42:48;;;;;;;;;;;17.30;99.90;;;;;;5097588;28;20439;-66
2022/10/15 10:45:18;;;;;;;;;;;17.40;99.90;;;;;;5104372;28;20032;-66
2022/10/15 10:47:45;;;;;;;;;;;17.40;99.90;;;;;;5105737;28;20010;-67
2022/10/15 10:50:25;;;;;;;;;;;17.50;99.90;;;;;;5112981;28;20368;-66
2022/10/15 10:52:53;;;;;;;;;;;17.50;99.90;;;;;;5106492;27;19924;-66
2022/10/15 10:55:20;;;;;;;;;;;17.50;99.90;;;;;;5100213;27;19977;-66
2022/10/15 10:57:49;;;;;;;;;;;17.50;99.90;;;;;;5103534;27;19932;-66
2022/10/15 11:00:19;;;;;;;;;;;17.50;99.90;;;;;;5101194;28;19935;-65
2022/10/15 11:02:46;;;;;;;;;;;17.40;99.90;;;;;;5114056;27;19924;-67
2022/10/15 11:05:14;;;;;;;;;;;17.40;99.90;;;;;;5110915;27;19958;-67
2022/10/15 11:07:46;;;;;;;;;;;17.40;99.90;;;;;;5101855;27;20382;-66
2022/10/15 11:10:16;;;;;;;;;;;17.40;99.90;;;;;;5101990;27;20057;-66
2022/10/15 11:12:48;;;;;;;;;;;17.40;99.90;;;;;;5108972;27;19951;-66
2022/10/15 11:15:21;;;;;;;;;;;17.40;99.90;;;;;;5111457;28;19927;-67
2022/10/15 11:17:52;;;;;;;;;;;17.40;99.90;;;;;;5117670;27;19923;-66
2022/10/15 11:20:20;;;;;;;;;;;17.40;99.90;;;;;;5121536;27;19923;-66
2022/10/15 11:22:57;;;;;;;;;;;17.60;99.90;;;;;;5109330;27;20005;-67
2022/10/15 11:25:31;;;;;;;;;;;17.70;99.90;;;;;;5111192;27;19923;-66
2022/10/15 11:28:06;;;;;;;;;;;17.70;99.90;;;;;;5116573;27;19930;-66
2022/10/15 11:30:39;;;;;;;;;;;17.90;99.90;;;;;;5113413;27;19923;-67
2022/10/15 11:33:12;;;;;;;;;;;18.10;99.90;;;;;;5115014;27;20401;-66
2022/10/15 11:35:43;;;;;;;;;;;18.20;99.90;;;;;;5113989;27;19930;-66
2022/10/15 11:38:17;;;;;;;;;;;18.50;99.90;;;;;;5113273;27;20413;-66
2022/10/15 11:40:49;;;;;;;;;;;18.60;99.90;;;;;;5114769;27;20323;-65
2022/10/15 11:43:21;;;;;;;;;;;18.60;99.90;;;;;;5111509;27;19928;-66
2022/10/15 11:45:58;;;;;;;;;;;18.50;99.90;;;;;;5121584;27;20014;-66
2022/10/15 11:48:33;;;;;;;;;;;18.60;99.90;;;;;;5120838;27;20383;-66
2022/10/15 11:51:04;;;;;;;;;;;18.80;99.90;;;;;;5107449;27;20456;-66
2022/10/15 11:53:46;;;;;;;;;;;18.80;99.90;;;;;;5112580;27;19923;-64
2022/10/15 11:56:14;;;;;;;;;;;18.80;99.90;;;;;;5116646;27;19923;-66
2022/10/15 11:58:44;;;;;;;;;;;18.90;99.90;;;;;;5117999;27;20681;-66
2022/10/15 12:01:15;;;;;;;;;;;18.90;99.90;;;;;;5108554;27;19924;-66
2022/10/15 12:03:45;;;;;;;;;;;18.80;99.90;;;;;;5122771;27;19957;-67
2022/10/15 12:06:15;;;;;;;;;;;18.80;99.90;;;;;;5107504;27;20404;-66
2022/10/15 12:08:43;;;;;;;;;;;18.80;99.90;;;;;;5111260;28;19924;-65
2022/10/15 12:11:16;;;;;;;;;;;18.80;99.90;;;;;;5124323;27;19967;-65
2022/10/15 12:13:45;;;;;;;;;;;18.70;99.90;;;;;;5132942;27;19963;-66
2022/10/15 12:16:18;;;;;;;;;;;18.60;99.90;;;;;;5111350;27;19924;-66
2022/10/15 12:18:49;;;;;;;;;;;18.50;99.90;;;;;;5112497;27;19946;-69
2022/10/15 12:21:29;;;;;;;;;;;18.40;99.90;;;;;;5120981;27;19927;-66
2022/10/15 12:23:56;;;;;;;;;;;18.50;99.90;;;;;;5128876;27;19998;-66
2022/10/15 12:26:26;;;;;;;;;;;18.50;99.90;;;;;;5121938;27;19975;-67
2022/10/15 12:28:54;;;;;;;;;;;18.50;99.90;;;;;;5113323;27;19953;-67
2022/10/15 12:31:23;;;;;;;;;;;18.40;99.90;;;;;;5099978;27;19974;-66
2022/10/15 12:33:50;;;;;;;;;;;18.30;99.90;;;;;;5110119;27;20259;-65
2022/10/15 12:36:26;;;;;;;;;;;18.20;99.90;;;;;;5114526;27;19923;-66
2022/10/15 12:38:57;;;;;;;;;;;18.20;99.90;;;;;;5118716;27;20367;-66
2022/10/15 12:41:34;;;;;;;;;;;18.30;99.90;;;;;;5112936;27;19931;-67
2022/10/15 12:44:05;;;;;;;;;;;18.30;99.90;;;;;;5112817;27;19945;-66
2022/10/15 12:46:38;;;;;;;;;;;18.50;99.90;;;;;;5105966;27;20010;-67
2022/10/15 12:49:36;;;;;;;;;;;18.50;99.90;;;;;;5110911;27;20387;-66
2022/10/15 12:52:23;;;;;;;;;;;18.50;99.90;;;;;;5106381;27;20358;-67
2022/10/15 12:54:53;;;;;;;;;;;18.50;99.90;;;;;;5111883;28;19924;-66
2022/10/15 12:57:38;;;;;;;;;;;18.70;99.90;;;;;;5115428;27;20366;-67
2022/10/15 13:00:20;;;;;;;;;;;18.70;99.90;;;;;;5102942;27;19946;-65
2022/10/15 13:02:47;;;;;;;;;;;18.70;99.90;;;;;;5114438;27;20586;-66
2022/10/15 13:05:24;;;;;;;;;;;18.50;99.90;;;;;;5111806;27;20026;-67
2022/10/15 13:07:51;;;;;;;;;;;18.60;99.90;;;;;;5129678;27;19930;-67
2022/10/15 13:10:21;;;;;;;;;;;18.60;99.90;;;;;;5107038;27;20302;-66
2022/10/15 13:12:51;;;;;;;;;;;18.60;99.90;;;;;;5116749;27;19923;-67
2022/10/15 13:15:17;;;;;;;;;;;18.50;99.90;;;;;;5110636;27;19931;-67
2022/10/15 13:17:44;;;;;;;;;;;18.40;99.90;;;;;;5110708;27;19924;-66
2022/10/15 13:20:29;;;;;;;;;;;18.40;99.90;;;;;;5118745;27;20445;-67
2022/10/15 13:23:07;;;;;;;;;;;18.40;99.90;;;;;;5098721;28;21887;-66
2022/10/15 13:25:35;;;;;;;;;;;18.40;99.90;;;;;;5116468;27;19967;-67
2022/10/15 13:28:02;;;;;;;;;;;18.30;99.90;;;;;;5122559;27;19923;-67
2022/10/15 13:30:29;;;;;;;;;;;18.20;99.90;;;;;;5119587;27;19933;-66
2022/10/15 13:32:56;;;;;;;;;;;18.10;99.90;;;;;;5110475;27;19924;-67
2022/10/15 13:35:27;;;;;;;;;;;18.10;99.90;;;;;;5126084;27;20354;-67
2022/10/15 13:37:55;;;;;;;;;;;18.20;99.90;;;;;;5124676;27;19984;-66
2022/10/15 13:40:23;;;;;;;;;;;18.30;99.90;;;;;;5109173;27;20290;-67
2022/10/15 13:43:01;;;;;;;;;;;18.30;99.90;;;;;;5117510;27;19962;-66
2022/10/15 13:45:27;;;;;;;;;;;18.20;99.90;;;;;;5131636;27;19923;-67
2022/10/15 13:47:55;;;;;;;;;;;18.20;99.90;;;;;;5125475;27;20290;-66
2022/10/15 13:50:24;;;;;;;;;;;18.20;99.90;;;;;;5108701;27;19989;-66
2022/10/15 13:52:53;;;;;;;;;;;18.30;99.90;;;;;;5122290;27;19999;-66
2022/10/15 13:55:21;;;;;;;;;;;18.50;99.90;;;;;;5111402;27;20430;-66
2022/10/15 13:57:49;;;;;;;;;;;18.60;99.90;;;;;;5108947;27;20334;-66
2022/10/15 14:00:22;;;;;;;;;;;18.50;99.90;;;;;;5122452;27;19980;-65
2022/10/15 14:03:06;;;;;;;;;;;18.30;99.90;;;;;;5115800;27;19928;-67
2022/10/15 14:05:32;;;;;;;;;;;18.30;99.90;;;;;;5103959;27;19966;-66
2022/10/15 14:08:00;;;;;;;;;;;18.30;99.90;;;;;;5114365;27;19923;-67
2022/10/15 14:10:27;;;;;;;;;;;18.30;99.90;;;;;;5107384;27;19924;-67
2022/10/15 14:12:53;;;;;;;;;;;18.20;99.90;;;;;;5110618;28;20418;-66
2022/10/15 14:15:41;;;;;;;;;;;18.20;99.90;;;;;;5109963;27;20081;-67
2022/10/15 14:18:08;;;;;;;;;;;18.30;99.90;;;;;;5109091;28;19938;-65
2022/10/15 14:20:35;;;;;;;;;;;18.40;99.90;;;;;;5116894;27;19924;-66
2022/10/15 14:23:02;;;;;;;;;;;18.50;99.90;;;;;;5114388;27;19935;-67
2022/10/15 14:25:28;;;;;;;;;;;18.50;99.90;;;;;;5111025;28;19984;-66